Time;durP1;ratioP1;P1;durP2;ratioP2;P2;SDS_P1;SDS_P2;PMS_P1;PMS_P2;Temp;Humidity;BMP_temperature;BMP_pressure;BME280_temperature;BME280_humidity;BME280_pressure;Samples;Min_cycle;Max_cycle;Signal;HPM_P1;HPM_P2
2023/06/12 00:00:52;;;;;;;7.57;1.77;;;17.70;99.90;;;;;;4998101;28;20555;-68
2023/06/12 00:03:19;;;;;;;3.92;1.40;;;17.60;99.90;;;;;;4997410;28;20167;-68
2023/06/12 00:05:46;;;;;;;2.65;1.45;;;17.60;99.90;;;;;;4980626;28;20029;-68
2023/06/12 00:08:13;;;;;;;5.00;1.65;;;17.60;99.90;;;;;;5000816;28;20405;-69
2023/06/12 00:10:43;;;;;;;5.80;1.20;;;17.50;99.90;;;;;;4997779;28;20079;-68
2023/06/12 00:13:10;;;;;;;4.80;1.55;;;17.50;99.90;;;;;;5019038;28;20037;-68
2023/06/12 00:15:36;;;;;;;6.82;1.45;;;17.40;99.90;;;;;;4999374;28;20155;-68
2023/06/12 00:18:03;;;;;;;6.95;1.13;;;17.40;99.90;;;;;;5031556;28;20095;-68
2023/06/12 00:20:29;;;;;;;4.32;1.60;;;17.30;99.90;;;;;;4997513;28;20040;-69
2023/06/12 00:22:56;;;;;;;2.88;1.13;;;17.30;99.90;;;;;;4998106;28;20045;-68
2023/06/12 00:25:21;;;;;;;8.25;1.77;;;17.30;98.40;;;;;;5013649;28;20034;-69
2023/06/12 00:27:47;;;;;;;5.07;1.55;;;17.30;92.70;;;;;;4997650;28;20068;-68
2023/06/12 00:30:14;;;;;;;4.10;1.40;;;17.30;80.10;;;;;;4997197;28;20548;-68
2023/06/12 00:32:39;;;;;;;3.60;1.40;;;17.30;81.30;;;;;;4997098;28;20049;-68
2023/06/12 00:35:06;;;;;;;5.10;1.63;;;17.30;92.50;;;;;;4996525;28;20684;-68
2023/06/12 00:37:32;;;;;;;6.35;1.42;;;17.20;95.30;;;;;;4996793;28;20222;-68
2023/06/12 00:39:58;;;;;;;6.88;1.40;;;17.20;97.00;;;;;;4997289;28;20038;-70
2023/06/12 00:42:30;;;;;;;4.38;1.40;;;17.10;99.90;;;;;;4996060;28;20068;-70
2023/06/12 00:44:56;;;;;;;2.53;1.38;;;17.10;99.90;;;;;;4997724;28;20234;-68
2023/06/12 00:47:24;;;;;;;5.50;1.50;;;17.10;99.90;;;;;;4980831;28;20038;-69
2023/06/12 00:49:50;;;;;;;7.70;1.58;;;17.10;99.90;;;;;;4982368;28;20103;-68
2023/06/12 00:52:18;;;;;;;4.93;1.60;;;17.10;99.90;;;;;;4998767;28;20045;-68
2023/06/12 00:54:46;;;;;;;4.28;1.58;;;17.10;99.90;;;;;;5012657;28;20051;-68
2023/06/12 00:57:12;;;;;;;6.43;1.60;;;17.00;99.90;;;;;;5013121;28;20052;-68
2023/06/12 00:59:38;;;;;;;8.35;1.65;;;17.10;99.90;;;;;;4996723;28;20057;-68
2023/06/12 01:02:06;;;;;;;5.30;1.63;;;17.10;99.90;;;;;;4982522;28;20269;-68
2023/06/12 01:04:33;;;;;;;5.25;1.63;;;17.00;99.90;;;;;;4996737;28;20045;-68
2023/06/12 01:07:21;;;;;;;6.68;2.05;;;17.00;99.90;;;;;;4979792;28;20045;-68
2023/06/12 01:09:55;;;;;;;7.25;1.55;;;17.00;99.90;;;;;;5014676;28;20293;-68
2023/06/12 01:12:22;;;;;;;6.93;1.83;;;16.90;99.90;;;;;;5013256;28;20037;-68
2023/06/12 01:14:48;;;;;;;5.32;1.40;;;16.90;99.90;;;;;;5030460;28;20193;-68
2023/06/12 01:17:14;;;;;;;5.35;1.92;;;16.90;99.90;;;;;;4995276;28;20045;-68
2023/06/12 01:19:41;;;;;;;5.22;1.77;;;16.90;99.90;;;;;;5016270;28;20056;-69
2023/06/12 01:22:10;;;;;;;5.97;2.10;;;16.90;99.90;;;;;;4996096;28;20175;-69
2023/06/12 01:25:03;;;;;;;6.28;1.80;;;16.80;99.90;;;;;;4996910;28;20053;-69
2023/06/12 01:27:45;;;;;;;6.40;1.90;;;16.80;99.90;;;;;;4979652;28;20244;-69
2023/06/12 01:30:42;;;;;;;8.23;2.30;;;16.70;99.90;;;;;;5032410;28;20107;-68
2023/06/12 01:33:13;;;;;;;5.60;1.92;;;16.70;99.90;;;;;;5012597;28;20475;-68
2023/06/12 01:35:43;;;;;;;8.77;2.30;;;16.60;99.90;;;;;;4997113;28;20041;-68
2023/06/12 01:38:23;;;;;;;6.63;1.95;;;16.50;99.90;;;;;;4964331;28;20038;-69
2023/06/12 01:40:50;;;;;;;3.45;1.63;;;16.50;99.90;;;;;;4997363;28;20049;-69
2023/06/12 01:43:16;;;;;;;5.55;2.00;;;16.40;99.90;;;;;;4997035;28;20038;-69
2023/06/12 01:45:42;;;;;;;3.88;1.80;;;16.40;99.90;;;;;;5000324;28;20122;-69
2023/06/12 01:48:08;;;;;;;5.47;1.75;;;16.40;99.90;;;;;;5033712;28;20223;-70
2023/06/12 01:50:34;;;;;;;4.82;2.20;;;16.40;99.90;;;;;;5002542;28;20063;-69
2023/06/12 01:52:59;;;;;;;5.55;2.30;;;16.40;99.90;;;;;;5000910;28;20049;-69
2023/06/12 01:55:27;;;;;;;8.50;2.40;;;16.30;99.90;;;;;;5033571;28;20132;-69
2023/06/12 01:57:53;;;;;;;6.57;2.22;;;16.30;99.90;;;;;;5001836;28;20201;-69
2023/06/12 02:00:19;;;;;;;8.50;2.22;;;16.30;99.90;;;;;;5001331;28;20045;-69
2023/06/12 02:02:45;;;;;;;6.53;2.20;;;16.20;99.90;;;;;;5016803;28;20041;-69
2023/06/12 02:05:11;;;;;;;6.90;2.40;;;16.20;99.90;;;;;;4984302;28;20045;-69
2023/06/12 02:07:37;;;;;;;7.07;1.98;;;16.20;99.90;;;;;;4982913;28;20075;-69
2023/06/12 02:10:03;;;;;;;7.13;2.53;;;16.20;99.90;;;;;;4999972;28;20193;-69
2023/06/12 02:12:30;;;;;;;4.97;2.60;;;16.20;99.90;;;;;;5017627;28;20289;-69
2023/06/12 02:14:59;;;;;;;8.40;2.35;;;16.20;99.90;;;;;;4983350;28;20367;-68
2023/06/12 02:17:24;;;;;;;9.35;2.47;;;16.20;99.90;;;;;;5001508;28;20045;-69
2023/06/12 02:19:50;;;;;;;5.32;2.20;;;16.10;99.90;;;;;;5017193;28;20754;-69
2023/06/12 02:22:16;;;;;;;4.30;1.95;;;16.10;99.90;;;;;;4984310;28;20041;-69
2023/06/12 02:24:42;;;;;;;8.40;2.50;;;16.10;99.90;;;;;;4984601;28;20242;-69
2023/06/12 02:27:07;;;;;;;5.45;2.25;;;16.10;99.90;;;;;;4983977;28;20455;-69
2023/06/12 02:29:33;;;;;;;6.30;2.33;;;16.00;99.90;;;;;;4983136;28;20044;-69
2023/06/12 02:31:59;;;;;;;6.20;2.40;;;15.90;99.90;;;;;;5015663;28;20511;-69
2023/06/12 02:34:24;;;;;;;4.82;2.17;;;15.90;99.90;;;;;;5004034;28;20218;-68
2023/06/12 02:36:50;;;;;;;5.53;2.45;;;15.80;99.90;;;;;;4983901;28;20110;-68
2023/06/12 02:39:17;;;;;;;8.80;2.80;;;15.80;99.90;;;;;;5013346;28;20033;-68
2023/06/12 02:41:48;;;;;;;9.27;2.60;;;15.80;99.90;;;;;;4982869;28;20081;-68
2023/06/12 02:44:14;;;;;;;9.52;2.70;;;15.70;99.90;;;;;;4998322;28;20293;-68
2023/06/12 02:46:54;;;;;;;5.40;2.40;;;15.70;99.90;;;;;;4999941;28;20096;-69
2023/06/12 02:49:21;;;;;;;5.25;2.60;;;15.60;99.90;;;;;;5031560;28;20516;-68
2023/06/12 02:51:47;;;;;;;11.27;3.10;;;15.60;99.90;;;;;;5017761;28;20483;-68
2023/06/12 02:54:14;;;;;;;8.85;3.03;;;15.60;99.90;;;;;;4999443;28;20270;-67
2023/06/12 02:56:44;;;;;;;7.50;2.47;;;15.50;99.90;;;;;;4982410;28;20037;-68
2023/06/12 02:59:15;;;;;;;6.18;2.30;;;15.50;99.90;;;;;;4999482;28;20053;-69
2023/06/12 03:01:43;;;;;;;9.45;2.63;;;15.40;99.90;;;;;;5000152;28;20056;-67
2023/06/12 03:04:20;;;;;;;5.60;2.50;;;15.40;99.90;;;;;;5034293;28;20523;-68
2023/06/12 03:06:47;;;;;;;4.82;2.53;;;15.30;99.90;;;;;;5017798;28;20483;-68
2023/06/12 03:09:15;;;;;;;6.55;2.95;;;15.30;99.90;;;;;;4999609;28;20203;-68
2023/06/12 03:11:45;;;;;;;9.18;2.88;;;15.20;99.90;;;;;;4998573;28;20221;-68
2023/06/12 03:14:14;;;;;;;6.45;3.10;;;15.20;99.90;;;;;;5000354;28;20037;-68
2023/06/12 03:16:40;;;;;;;6.07;2.80;;;15.10;99.90;;;;;;5016161;28;20037;-68
2023/06/12 03:19:06;;;;;;;5.72;2.70;;;15.10;99.90;;;;;;4999330;28;20064;-68
2023/06/12 03:21:32;;;;;;;6.90;2.97;;;15.10;99.90;;;;;;4998805;28;20073;-68
2023/06/12 03:23:58;;;;;;;12.32;2.95;;;15.10;99.90;;;;;;4982066;28;20113;-68
2023/06/12 03:26:24;;;;;;;7.93;3.08;;;15.10;99.90;;;;;;4998158;28;20250;-68
2023/06/12 03:28:50;;;;;;;5.32;2.70;;;15.00;99.90;;;;;;4998471;28;20037;-68
2023/06/12 03:31:16;;;;;;;6.47;3.13;;;15.00;99.90;;;;;;5014739;28;20041;-68
2023/06/12 03:33:42;;;;;;;10.40;2.92;;;15.00;1.00;;;;;;4985839;28;20064;-69
2023/06/12 03:36:11;;;;;;;8.18;3.25;;;15.00;1.00;;;;;;5015950;28;20285;-68
2023/06/12 03:38:37;;;;;;;7.47;2.80;;;15.00;1.00;;;;;;5012481;28;20077;-69
2023/06/12 03:41:02;;;;;;;8.05;3.00;;;15.00;1.00;;;;;;4999210;28;20213;-69
2023/06/12 03:43:28;;;;;;;6.97;3.10;;;15.00;1.00;;;;;;5016981;28;20041;-69
2023/06/12 03:45:54;;;;;;;8.07;3.05;;;15.00;1.00;;;;;;4998870;28;20106;-70
2023/06/12 03:48:19;;;;;;;4.97;2.60;;;15.00;1.00;;;;;;4982059;28;20033;-69
2023/06/12 03:50:45;;;;;;;5.90;3.08;;;15.00;1.00;;;;;;4980575;28;20061;-69
2023/06/12 03:53:11;;;;;;;8.43;3.28;;;15.00;1.00;;;;;;5000080;28;20144;-69
2023/06/12 03:55:37;;;;;;;4.60;3.20;;;15.00;1.00;;;;;;4982097;28;20064;-68
2023/06/12 03:58:03;;;;;;;6.82;2.95;;;15.00;1.00;;;;;;5017893;28;20584;-69
2023/06/12 04:00:29;;;;;;;9.07;2.85;;;15.10;1.00;;;;;;4998284;28;20575;-69
2023/06/12 04:02:55;;;;;;;7.30;2.72;;;15.10;1.00;;;;;;5031969;28;20055;-69
2023/06/12 04:05:21;;;;;;;7.45;3.53;;;15.10;1.00;;;;;;4982813;28;20045;-68
2023/06/12 04:07:47;;;;;;;8.95;2.97;;;15.10;1.00;;;;;;4979080;28;20726;-69
2023/06/12 04:10:13;;;;;;;9.30;3.50;;;15.10;1.00;;;;;;5033152;28;20231;-69
2023/06/12 04:12:39;;;;;;;8.50;3.25;;;15.10;1.00;;;;;;4997922;28;20096;-68
2023/06/12 04:15:06;;;;;;;6.50;3.47;;;15.10;1.00;;;;;;4997963;28;20115;-69
2023/06/12 04:17:31;;;;;;;6.15;3.50;;;15.10;1.00;;;;;;4998944;28;20242;-69
2023/06/12 04:19:57;;;;;;;7.07;3.05;;;15.10;1.00;;;;;;5030994;28;20522;-69
2023/06/12 04:22:25;;;;;;;6.97;3.03;;;15.20;1.00;;;;;;5031056;28;20045;-69
2023/06/12 04:24:55;;;;;;;7.43;3.28;;;15.20;1.00;;;;;;4995650;28;20277;-68
2023/06/12 04:27:21;;;;;;;6.07;3.55;;;15.20;1.00;;;;;;5013744;28;20042;-69
2023/06/12 04:29:46;;;;;;;9.27;3.83;;;15.20;1.00;;;;;;4998001;28;20041;-69
2023/06/12 04:32:15;;;;;;;7.43;3.63;;;15.20;1.00;;;;;;5014077;28;20045;-69
2023/06/12 04:34:43;;;;;;;6.97;3.83;;;15.20;1.00;;;;;;5030735;28;20109;-68
2023/06/12 04:37:11;;;;;;;7.47;3.33;;;15.30;1.00;;;;;;4983969;28;20081;-69
2023/06/12 04:39:38;;;;;;;9.98;3.90;;;15.30;1.00;;;;;;5013017;28;20049;-69
2023/06/12 04:42:05;;;;;;;8.63;3.47;;;15.40;1.00;;;;;;4981171;28;20045;-69
2023/06/12 04:44:35;;;;;;;7.03;3.25;;;15.50;1.00;;;;;;4982775;28;20049;-70
2023/06/12 04:47:04;;;;;;;7.90;3.45;;;15.50;1.00;;;;;;4981356;28;20041;-69
2023/06/12 04:49:32;;;;;;;15.10;3.90;;;15.40;1.00;;;;;;4981065;28;20048;-69
2023/06/12 04:52:00;;;;;;;8.80;3.30;;;15.40;1.00;;;;;;4996683;28;20618;-69
2023/06/12 04:54:28;;;;;;;7.63;3.45;;;15.40;1.00;;;;;;4980160;28;20056;-69
2023/06/12 04:56:54;;;;;;;11.05;3.60;;;15.40;1.00;;;;;;4977166;28;20068;-70
2023/06/12 04:59:20;;;;;;;5.93;3.80;;;15.40;1.00;;;;;;4980607;28;20637;-69
2023/06/12 05:01:47;;;;;;;8.07;3.53;;;15.40;1.00;;;;;;5013067;28;20235;-70
2023/06/12 05:04:12;;;;;;;8.43;3.83;;;15.40;1.00;;;;;;5012465;28;20203;-69
2023/06/12 05:06:39;;;;;;;10.60;4.00;;;15.40;1.00;;;;;;5012411;28;20053;-69
2023/06/12 05:09:07;;;;;;;10.68;3.92;;;15.40;1.00;;;;;;4977287;28;20170;-70
2023/06/12 05:11:33;;;;;;;11.13;4.00;;;15.40;1.00;;;;;;4979304;28;20147;-70
2023/06/12 05:13:59;;;;;;;6.95;3.88;;;15.40;1.00;;;;;;4980708;28;20335;-70
2023/06/12 05:16:24;;;;;;;8.68;3.90;;;15.40;1.00;;;;;;4978522;28;20033;-70
2023/06/12 05:18:51;;;;;;;9.80;4.00;;;15.50;1.00;;;;;;5028098;28;20044;-69
2023/06/12 05:21:19;;;;;;;10.48;4.20;;;15.50;1.00;;;;;;4998745;28;20055;-69
2023/06/12 05:23:45;;;;;;;7.57;3.72;;;15.60;1.00;;;;;;4979660;28;20251;-69
2023/06/12 05:26:11;;;;;;;7.80;4.03;;;15.70;1.00;;;;;;4979726;28;20044;-69
2023/06/12 05:28:36;;;;;;;8.07;4.00;;;15.90;1.00;;;;;;5012549;28;20045;-69
2023/06/12 05:31:04;;;;;;;6.07;3.65;;;16.30;1.00;;;;;;5030899;28;20044;-69
2023/06/12 05:33:30;;;;;;;6.57;2.92;;;16.70;1.00;;;;;;4980513;28;20037;-68
2023/06/12 05:35:55;;;;;;;9.73;3.83;;;17.10;99.90;;;;;;4980883;28;20034;-68
2023/06/12 05:38:22;;;;;;;6.72;3.53;;;17.40;99.90;;;;;;4980379;28;20428;-68
2023/06/12 05:40:47;;;;;;;6.88;3.35;;;17.70;99.90;;;;;;5017518;28;20165;-68
2023/06/12 05:43:13;;;;;;;6.80;3.08;;;17.90;99.90;;;;;;4977359;28;20069;-68
2023/06/12 05:45:39;;;;;;;6.20;3.28;;;18.00;99.90;;;;;;5028614;28;20297;-68
2023/06/12 05:48:05;;;;;;;5.20;2.72;;;18.20;99.90;;;;;;5014026;28;20029;-68
2023/06/12 05:50:30;;;;;;;7.85;3.13;;;18.40;99.90;;;;;;4996219;28;20056;-68
2023/06/12 05:52:56;;;;;;;5.75;2.80;;;18.60;99.90;;;;;;5029335;28;20482;-68
2023/06/12 05:55:22;;;;;;;6.97;2.70;;;18.70;99.90;;;;;;4979326;28;20415;-69
2023/06/12 05:57:47;;;;;;;7.93;2.97;;;18.90;99.90;;;;;;4979050;28;20124;-69
2023/06/12 06:00:14;;;;;;;6.15;2.47;;;19.00;99.90;;;;;;5010246;28;20802;-68
2023/06/12 06:02:43;;;;;;;8.25;3.10;;;19.10;99.90;;;;;;5011489;28;20104;-68
2023/06/12 06:05:10;;;;;;;8.38;2.92;;;19.20;99.90;;;;;;4978571;28;20028;-69
2023/06/12 06:07:36;;;;;;;5.60;2.53;;;19.30;99.90;;;;;;4995725;28;20106;-69
2023/06/12 06:10:11;;;;;;;7.57;3.22;;;19.40;99.90;;;;;;5009283;28;20496;-69
2023/06/12 06:12:37;;;;;;;6.32;2.80;;;19.40;99.90;;;;;;4979932;28;20053;-68
2023/06/12 06:15:03;;;;;;;7.80;3.00;;;19.50;99.90;;;;;;4976427;28;20037;-69
2023/06/12 06:17:29;;;;;;;6.70;2.78;;;19.60;99.90;;;;;;4979138;28;20503;-69
2023/06/12 06:19:55;;;;;;;6.20;3.15;;;19.70;99.90;;;;;;4980637;28;20052;-68
2023/06/12 06:22:24;;;;;;;9.40;3.22;;;19.80;99.90;;;;;;4979759;28;20076;-68
2023/06/12 06:24:50;;;;;;;6.55;3.03;;;20.00;99.90;;;;;;4995230;28;20080;-67
2023/06/12 06:27:15;;;;;;;9.18;2.85;;;20.10;99.90;;;;;;4979383;28;20242;-67
2023/06/12 06:29:41;;;;;;;6.57;2.53;;;20.20;99.90;;;;;;4980636;28;20526;-68
2023/06/12 06:32:07;;;;;;;7.43;2.70;;;20.40;99.90;;;;;;4998063;28;20048;-69
2023/06/12 06:34:33;;;;;;;6.68;3.08;;;20.60;99.90;;;;;;4998409;28;20099;-68
2023/06/12 06:36:58;;;;;;;4.47;2.25;;;20.60;78.00;;;;;;4980724;28;20041;-68
2023/06/12 06:39:24;;;;;;;6.95;2.60;;;20.70;62.10;;;;;;4983146;28;20052;-68
2023/06/12 06:41:50;;;;;;;4.32;2.63;;;20.80;35.60;;;;;;4996764;28;20121;-68
2023/06/12 06:44:15;;;;;;;4.68;2.50;;;20.90;1.00;;;;;;4983551;28;20871;-68
2023/06/12 06:46:41;;;;;;;6.35;2.60;;;21.10;1.00;;;;;;5016526;28;20520;-69
2023/06/12 06:49:07;;;;;;;6.22;2.80;;;21.10;1.00;;;;;;5015730;28;20039;-69
2023/06/12 06:51:33;;;;;;;6.43;2.80;;;21.20;1.00;;;;;;4998000;28;20110;-69
2023/06/12 06:53:58;;;;;;;7.03;2.60;;;21.40;1.00;;;;;;4979247;28;20068;-69
2023/06/12 06:56:24;;;;;;;4.28;2.35;;;21.40;1.00;;;;;;4981966;28;20334;-69
2023/06/12 06:58:50;;;;;;;6.65;2.70;;;21.50;99.90;;;;;;4982317;28;20110;-68
2023/06/12 07:01:17;;;;;;;6.70;2.60;;;21.60;99.90;;;;;;4995281;28;20049;-68
2023/06/12 07:03:42;;;;;;;6.43;2.60;;;21.60;99.90;;;;;;4997239;28;20686;-67
2023/06/12 07:06:08;;;;;;;5.88;2.35;;;21.60;99.90;;;;;;5014302;28;20132;-67
2023/06/12 07:08:34;;;;;;;8.65;2.78;;;21.60;99.90;;;;;;4981026;28;20055;-68
2023/06/12 07:11:00;;;;;;;6.93;2.83;;;21.50;99.90;;;;;;5014263;28;20025;-68
2023/06/12 07:13:25;;;;;;;6.10;2.75;;;21.50;99.90;;;;;;5016133;28;20119;-68
2023/06/12 07:15:51;;;;;;;4.22;2.60;;;21.50;99.90;;;;;;4998327;28;20546;-68
2023/06/12 07:18:17;;;;;;;6.40;3.10;;;21.60;99.90;;;;;;4997199;28;20761;-68
2023/06/12 07:20:43;;;;;;;5.95;2.70;;;21.60;99.90;;;;;;4982129;28;20064;-68
2023/06/12 07:23:09;;;;;;;8.98;3.20;;;21.40;99.90;;;;;;4981713;28;20128;-68
2023/06/12 07:25:35;;;;;;;11.68;3.10;;;21.40;99.90;;;;;;4998599;28;20399;-68
2023/06/12 07:28:00;;;;;;;5.32;2.78;;;21.50;99.90;;;;;;4981909;28;20411;-68
2023/06/12 07:30:26;;;;;;;5.78;2.80;;;21.60;99.90;;;;;;4982329;28;20551;-69
2023/06/12 07:32:52;;;;;;;5.78;3.00;;;21.80;99.90;;;;;;4999322;28;20053;-69
2023/06/12 07:35:18;;;;;;;6.68;2.95;;;21.90;99.90;;;;;;4978814;28;20070;-68
2023/06/12 07:37:45;;;;;;;5.78;2.97;;;22.10;99.90;;;;;;4997164;28;20044;-69
2023/06/12 07:40:12;;;;;;;7.80;3.40;;;22.30;99.90;;;;;;4995233;28;20049;-68
2023/06/12 07:42:38;;;;;;;6.07;3.03;;;22.40;99.90;;;;;;4999168;28;20076;-68
2023/06/12 07:45:05;;;;;;;6.30;2.70;;;22.50;99.90;;;;;;4977949;28;20115;-68
2023/06/12 07:47:30;;;;;;;8.60;2.92;;;22.50;99.90;;;;;;4996973;28;20422;-68
2023/06/12 07:49:56;;;;;;;7.22;3.33;;;22.40;99.90;;;;;;4996921;28;20045;-68
2023/06/12 07:52:23;;;;;;;7.10;2.75;;;22.40;99.90;;;;;;4996034;28;20750;-68
2023/06/12 07:54:49;;;;;;;7.30;3.10;;;22.30;99.90;;;;;;5011658;28;20318;-68
2023/06/12 07:57:16;;;;;;;9.55;3.15;;;22.20;99.90;;;;;;4980268;28;20048;-68
2023/06/12 07:59:44;;;;;;;7.95;3.45;;;22.40;99.90;;;;;;5004490;28;20138;-68
2023/06/12 08:02:10;;;;;;;6.15;2.67;;;22.70;99.90;;;;;;4981566;28;20393;-68
2023/06/12 08:04:40;;;;;;;5.13;3.22;;;22.80;99.90;;;;;;4978119;28;20424;-68
2023/06/12 08:07:10;;;;;;;6.45;2.92;;;22.90;99.90;;;;;;4982743;28;20115;-68
2023/06/12 08:09:39;;;;;;;10.52;3.58;;;22.80;99.90;;;;;;4996841;28;20057;-68
2023/06/12 08:12:05;;;;;;;9.80;3.83;;;22.90;99.90;;;;;;4980065;28;20100;-68
2023/06/12 08:14:31;;;;;;;5.57;3.30;;;23.10;99.90;;;;;;4982360;28;20041;-68
2023/06/12 08:16:58;;;;;;;9.88;4.35;;;23.00;99.90;;;;;;4998287;28;20041;-68
2023/06/12 08:19:23;;;;;;;9.52;3.65;;;23.00;99.90;;;;;;4996599;28;20160;-68
2023/06/12 08:21:49;;;;;;;8.07;3.70;;;22.90;99.90;;;;;;4995852;28;20523;-67
2023/06/12 08:24:15;;;;;;;6.60;3.88;;;23.20;99.90;;;;;;4978322;28;20092;-69
2023/06/12 08:26:41;;;;;;;7.85;3.42;;;23.50;99.90;;;;;;4979880;28;20051;-68
2023/06/12 08:29:08;;;;;;;5.95;3.13;;;23.60;99.90;;;;;;5013333;28;20037;-68
2023/06/12 08:31:34;;;;;;;4.82;3.50;;;23.70;99.90;;;;;;5013302;28;20049;-68
2023/06/12 08:34:00;;;;;;;5.20;3.38;;;23.90;99.90;;;;;;5012097;28;20047;-68
2023/06/12 08:36:26;;;;;;;8.88;4.20;;;23.60;99.90;;;;;;4996730;28;20050;-68
2023/06/12 08:38:52;;;;;;;6.68;4.05;;;23.60;99.90;;;;;;4999817;28;20186;-68
2023/06/12 08:41:24;;;;;;;7.32;3.70;;;23.60;99.90;;;;;;5013109;28;20058;-67
2023/06/12 08:43:51;;;;;;;6.60;3.97;;;23.60;99.90;;;;;;4996994;28;20048;-67
2023/06/12 08:46:17;;;;;;;8.63;4.40;;;23.50;99.90;;;;;;5016276;28;20074;-67
2023/06/12 08:48:46;;;;;;;10.07;4.00;;;23.60;99.90;;;;;;4979659;28;20041;-67
2023/06/12 08:51:14;;;;;;;10.23;4.57;;;23.80;99.90;;;;;;5029916;28;20045;-67
2023/06/12 08:53:40;;;;;;;7.82;3.97;;;23.90;99.90;;;;;;4996181;28;20120;-68
2023/06/12 08:56:09;;;;;;;6.20;4.20;;;23.70;99.90;;;;;;4995961;28;20344;-68
2023/06/12 08:58:35;;;;;;;7.25;4.15;;;23.80;99.90;;;;;;5012380;28;20170;-67
2023/06/12 09:01:02;;;;;;;10.27;4.10;;;24.00;99.90;;;;;;4995747;28;21213;-67
2023/06/12 09:03:30;;;;;;;8.85;4.13;;;24.20;99.90;;;;;;4995956;28;20053;-68
2023/06/12 09:05:59;;;;;;;8.25;4.20;;;24.50;99.90;;;;;;4995488;28;20123;-67
2023/06/12 09:08:25;;;;;;;7.57;4.68;;;24.50;99.90;;;;;;4997003;28;20150;-68
2023/06/12 09:10:52;;;;;;;8.73;4.43;;;24.80;99.90;;;;;;4996491;28;20696;-68
2023/06/12 09:13:18;;;;;;;7.28;4.43;;;25.00;99.90;;;;;;4981470;28;20166;-68
2023/06/12 09:15:52;;;;;;;8.02;4.30;;;25.10;99.90;;;;;;4974063;28;20238;-69
2023/06/12 09:18:19;;;;;;;9.45;4.15;;;25.20;99.90;;;;;;4982781;28;20045;-68
2023/06/12 09:20:48;;;;;;;8.52;4.18;;;25.40;99.90;;;;;;4994782;28;20300;-69
2023/06/12 09:23:16;;;;;;;6.35;3.65;;;25.80;99.90;;;;;;4996939;28;20696;-68
2023/06/12 09:25:43;;;;;;;6.63;4.22;;;26.00;99.90;;;;;;5012710;28;20470;-69
2023/06/12 09:28:10;;;;;;;8.98;3.92;;;26.00;99.90;;;;;;4999313;28;20040;-68
2023/06/12 09:30:41;;;;;;;6.55;3.83;;;26.00;99.90;;;;;;4976159;28;21183;-69
2023/06/12 09:33:07;;;;;;;8.63;4.13;;;26.00;99.90;;;;;;4996566;28;20522;-69
2023/06/12 09:35:48;;;;;;;8.75;3.80;;;26.00;99.90;;;;;;4974657;28;20235;-69
2023/06/12 09:38:14;;;;;;;9.82;4.45;;;26.20;99.90;;;;;;4981349;28;21151;-69
2023/06/12 09:40:41;;;;;;;8.18;3.63;;;26.40;99.90;;;;;;5011542;28;20045;-69
2023/06/12 09:43:06;;;;;;;7.68;3.95;;;26.50;99.90;;;;;;5012064;28;20056;-68
2023/06/12 09:45:32;;;;;;;6.43;3.90;;;26.50;99.90;;;;;;5027794;28;21330;-68
2023/06/12 09:47:58;;;;;;;10.10;3.85;;;26.80;99.90;;;;;;5012116;28;20052;-68
2023/06/12 09:50:25;;;;;;;8.23;3.70;;;26.70;99.90;;;;;;4997445;28;20041;-68
2023/06/12 09:52:54;;;;;;;8.10;3.78;;;26.80;99.90;;;;;;4996352;28;20125;-68
2023/06/12 09:55:20;;;;;;;8.27;4.20;;;26.90;99.90;;;;;;4995334;28;20111;-68
2023/06/12 09:57:50;;;;;;;9.88;3.83;;;26.90;99.90;;;;;;4996323;28;20496;-69
2023/06/12 10:00:17;;;;;;;7.43;4.50;;;27.10;99.90;;;;;;4997556;28;20316;-67
2023/06/12 10:02:56;;;;;;;7.70;3.80;;;27.10;99.90;;;;;;4975909;28;20772;-68
2023/06/12 10:05:34;;;;;;;7.47;4.35;;;27.30;99.90;;;;;;4995196;28;20508;-68
2023/06/12 10:08:03;;;;;;;7.30;4.03;;;27.40;99.90;;;;;;4999622;28;20422;-68
2023/06/12 10:10:33;;;;;;;7.25;4.53;;;27.40;99.90;;;;;;4980868;28;20051;-68
2023/06/12 10:13:01;;;;;;;5.28;3.83;;;27.60;99.90;;;;;;4983418;28;20051;-68
2023/06/12 10:15:32;;;;;;;6.10;3.60;;;27.80;99.90;;;;;;5014727;28;20086;-68
2023/06/12 10:17:58;;;;;;;10.68;4.43;;;28.00;99.90;;;;;;4983868;28;20566;-67
2023/06/12 10:20:24;;;;;;;9.02;3.90;;;28.20;99.90;;;;;;5000569;28;20416;-68
2023/06/12 10:22:54;;;;;;;5.57;3.75;;;28.30;99.90;;;;;;4998953;28;20542;-69
2023/06/12 10:25:20;;;;;;;7.97;3.40;;;28.50;99.90;;;;;;4982136;28;20049;-68
2023/06/12 10:27:47;;;;;;;6.22;3.30;;;28.60;99.90;;;;;;4998531;28;20329;-68
2023/06/12 10:30:15;;;;;;;5.25;3.50;;;28.60;99.90;;;;;;5016105;28;20037;-68
2023/06/12 10:32:45;;;;;;;5.05;3.30;;;28.60;99.90;;;;;;5032102;28;20060;-68
2023/06/12 10:35:11;;;;;;;4.38;3.40;;;28.70;99.90;;;;;;4998166;28;20042;-69
2023/06/12 10:37:42;;;;;;;6.50;3.47;;;28.70;99.90;;;;;;5015649;28;20450;-68
2023/06/12 10:40:15;;;;;;;6.03;3.25;;;28.80;99.90;;;;;;4983600;28;20311;-67
2023/06/12 10:42:47;;;;;;;4.80;3.20;;;28.70;99.90;;;;;;4999592;28;20338;-68
2023/06/12 10:45:13;;;;;;;;;;;28.80;99.90;;;;;;5012893;28;20045;-68
2023/06/12 10:47:38;;;;;;;4.13;3.70;;;28.90;99.90;;;;;;5012934;28;19920;-68
2023/06/12 10:50:05;;;;;;;5.35;3.03;;;29.40;99.90;;;;;;4981180;28;20049;-67
2023/06/12 10:52:31;;;;;;;4.95;2.88;;;29.70;99.90;;;;;;5015671;28;20095;-68
2023/06/12 10:55:17;;;;;;;3.78;2.90;;;29.70;99.90;;;;;;5014222;28;20486;-67
2023/06/12 10:57:57;;;;;;;5.00;2.97;;;29.70;99.90;;;;;;4996816;28;20136;-67
2023/06/12 11:00:37;;;;;;;5.93;3.25;;;29.60;99.90;;;;;;4981075;28;20091;-67
2023/06/12 11:03:11;;;;;;;4.18;2.90;;;29.60;99.90;;;;;;5014519;28;20045;-67
2023/06/12 11:05:38;;;;;;;5.72;2.80;;;29.80;99.90;;;;;;5014145;28;20515;-67
2023/06/12 11:08:06;;;;;;;2.75;1.95;;;29.90;99.90;;;;;;4982724;28;20049;-67
2023/06/12 11:10:33;;;;;;;6.00;2.40;;;30.10;99.90;;;;;;4997611;28;20046;-67
2023/06/12 11:13:00;;;;;;;4.47;2.33;;;30.20;99.90;;;;;;4996049;28;20411;-68
2023/06/12 11:15:26;;;;;;;2.60;2.30;;;30.30;99.90;;;;;;4997568;28;20209;-69
2023/06/12 11:17:53;;;;;;;3.38;2.30;;;30.40;99.90;;;;;;4997134;28;20041;-68
2023/06/12 11:20:20;;;;;;;6.03;2.03;;;30.30;99.90;;;;;;4982158;28;20034;-68
2023/06/12 11:22:47;;;;;;;5.57;2.15;;;30.30;99.90;;;;;;5014489;28;20525;-68
2023/06/12 11:25:13;;;;;;;4.85;2.65;;;30.50;99.90;;;;;;5015238;28;20049;-68
2023/06/12 11:27:39;;;;;;;6.30;2.58;;;30.50;99.90;;;;;;4982595;28;20069;-68
2023/06/12 11:30:09;;;;;;;4.25;2.70;;;30.40;99.90;;;;;;5014220;28;20468;-68
2023/06/12 11:32:35;;;;;;;3.40;2.10;;;30.50;99.90;;;;;;4996882;28;20107;-68
2023/06/12 11:35:02;;;;;;;4.30;2.28;;;30.60;99.90;;;;;;4980434;28;20289;-68
2023/06/12 11:37:28;;;;;;;6.43;2.90;;;30.80;99.90;;;;;;5013581;28;20494;-69
2023/06/12 11:40:14;;;;;;;5.30;2.70;;;31.00;99.90;;;;;;4997731;28;20055;-68
2023/06/12 11:42:44;;;;;;;5.40;2.40;;;31.20;99.90;;;;;;4997435;28;20099;-68
2023/06/12 11:45:15;;;;;;;4.93;2.50;;;31.30;99.90;;;;;;4996521;28;20048;-68
2023/06/12 11:47:43;;;;;;;4.20;2.50;;;31.20;99.90;;;;;;4996534;28;20040;-69
2023/06/12 11:50:11;;;;;;;5.35;2.88;;;31.30;99.90;;;;;;5013483;28;20444;-69
2023/06/12 11:52:39;;;;;;;6.80;2.40;;;31.30;99.90;;;;;;4979672;28;20353;-69
2023/06/12 11:55:08;;;;;;;4.93;2.45;;;31.20;99.90;;;;;;4999076;28;20366;-68
2023/06/12 11:57:35;;;;;;;7.22;2.67;;;31.10;99.90;;;;;;5029393;28;20084;-69
2023/06/12 12:00:14;;;;;;;4.05;2.50;;;31.20;99.90;;;;;;4981080;28;20238;-69
2023/06/12 12:02:49;;;;;;;7.95;2.80;;;31.10;99.90;;;;;;4997065;28;20037;-68
2023/06/12 12:05:22;;;;;;;3.63;2.60;;;31.10;99.90;;;;;;4995789;28;20239;-68
2023/06/12 12:07:59;;;;;;;4.60;2.70;;;31.00;99.90;;;;;;4981419;28;20302;-68
2023/06/12 12:10:30;;;;;;;3.35;2.30;;;31.10;99.90;;;;;;4998310;28;20574;-67
2023/06/12 12:13:00;;;;;;;3.97;2.40;;;31.30;99.90;;;;;;4979236;28;20110;-68
2023/06/12 12:15:40;;;;;;;5.55;2.60;;;31.40;99.90;;;;;;4981700;28;20270;-68
2023/06/12 12:18:13;;;;;;;3.10;2.55;;;31.50;99.90;;;;;;5028460;28;20045;-68
2023/06/12 12:20:39;;;;;;;3.50;2.53;;;31.50;99.90;;;;;;4964178;28;20594;-68
2023/06/12 12:23:10;;;;;;;6.00;2.90;;;31.60;99.90;;;;;;5012787;28;20451;-68
2023/06/12 12:25:36;;;;;;;5.93;2.75;;;31.70;99.90;;;;;;4982423;28;20048;-68
2023/06/12 12:28:03;;;;;;;3.58;2.42;;;31.80;99.90;;;;;;4994121;28;20480;-68
2023/06/12 12:30:30;;;;;;;4.50;2.50;;;32.10;99.90;;;;;;4993655;28;20052;-68
2023/06/12 12:32:57;;;;;;;3.40;2.47;;;32.20;99.90;;;;;;4980307;28;20230;-68
2023/06/12 12:35:24;;;;;;;5.60;2.70;;;32.30;99.90;;;;;;4998487;28;20045;-67
2023/06/12 12:37:52;;;;;;;6.05;2.33;;;32.20;99.90;;;;;;5002525;28;20037;-67
2023/06/12 12:40:18;;;;;;;3.40;2.60;;;32.20;99.90;;;;;;4996665;28;20034;-67
2023/06/12 12:42:44;;;;;;;4.95;2.58;;;32.20;99.90;;;;;;4979974;28;20494;-67
2023/06/12 12:45:12;;;;;;;5.15;2.72;;;32.30;99.90;;;;;;5029586;28;20119;-68
2023/06/12 12:47:41;;;;;;;3.03;2.70;;;32.20;99.90;;;;;;4995658;28;20567;-68
2023/06/12 12:50:08;;;;;;;4.75;2.70;;;32.10;99.90;;;;;;4995400;28;20240;-68